sensor_id;sensor_type;location;lat;lon;timestamp;P1;durP1;ratioP1;P2;durP2;ratioP2
35993;SDS011;22066;54.274;18.578;2023-04-25T00:00:52;10.70;;;5.72;;
35993;SDS011;22066;54.274;18.578;2023-04-25T00:03:18;7.70;;;4.90;;
35993;SDS011;22066;54.274;18.578;2023-04-25T00:05:44;6.72;;;3.97;;
35993;SDS011;22066;54.274;18.578;2023-04-25T00:08:10;8.27;;;4.78;;
35993;SDS011;22066;54.274;18.578;2023-04-25T00:10:37;8.88;;;4.60;;
35993;SDS011;22066;54.274;18.578;2023-04-25T00:13:03;8.73;;;4.28;;
35993;SDS011;22066;54.274;18.578;2023-04-25T00:15:29;9.32;;;4.90;;
35993;SDS011;22066;54.274;18.578;2023-04-25T00:17:56;8.02;;;3.90;;
35993;SDS011;22066;54.274;18.578;2023-04-25T00:20:22;7.68;;;4.18;;
35993;SDS011;22066;54.274;18.578;2023-04-25T00:22:48;9.38;;;4.70;;
35993;SDS011;22066;54.274;18.578;2023-04-25T00:25:15;7.45;;;4.55;;
35993;SDS011;22066;54.274;18.578;2023-04-25T00:27:41;9.13;;;4.25;;
35993;SDS011;22066;54.274;18.578;2023-04-25T00:30:07;7.50;;;4.50;;
35993;SDS011;22066;54.274;18.578;2023-04-25T00:32:33;8.82;;;4.28;;
35993;SDS011;22066;54.274;18.578;2023-04-25T00:35:00;6.53;;;3.90;;
35993;SDS011;22066;54.274;18.578;2023-04-25T00:37:26;6.78;;;4.22;;
35993;SDS011;22066;54.274;18.578;2023-04-25T00:39:52;8.73;;;3.90;;
35993;SDS011;22066;54.274;18.578;2023-04-25T00:42:20;6.63;;;3.72;;
35993;SDS011;22066;54.274;18.578;2023-04-25T00:44:47;8.43;;;4.22;;
35993;SDS011;22066;54.274;18.578;2023-04-25T00:47:13;8.60;;;4.80;;
35993;SDS011;22066;54.274;18.578;2023-04-25T00:49:39;9.55;;;4.15;;
35993;SDS011;22066;54.274;18.578;2023-04-25T00:52:05;8.50;;;4.13;;
35993;SDS011;22066;54.274;18.578;2023-04-25T00:54:31;5.97;;;3.65;;
35993;SDS011;22066;54.274;18.578;2023-04-25T00:56:58;5.85;;;3.58;;
35993;SDS011;22066;54.274;18.578;2023-04-25T00:59:25;6.95;;;3.65;;
35993;SDS011;22066;54.274;18.578;2023-04-25T01:01:52;6.82;;;3.78;;
35993;SDS011;22066;54.274;18.578;2023-04-25T01:04:18;6.57;;;3.40;;
35993;SDS011;22066;54.274;18.578;2023-04-25T01:06:45;8.02;;;3.45;;
35993;SDS011;22066;54.274;18.578;2023-04-25T01:09:11;7.63;;;4.18;;
35993;SDS011;22066;54.274;18.578;2023-04-25T01:11:38;7.72;;;3.95;;
35993;SDS011;22066;54.274;18.578;2023-04-25T01:14:05;5.78;;;3.47;;
35993;SDS011;22066;54.274;18.578;2023-04-25T01:16:31;10.13;;;3.38;;
35993;SDS011;22066;54.274;18.578;2023-04-25T01:18:58;6.38;;;3.35;;
35993;SDS011;22066;54.274;18.578;2023-04-25T01:21:24;6.05;;;3.63;;
35993;SDS011;22066;54.274;18.578;2023-04-25T01:23:53;6.82;;;3.47;;
35993;SDS011;22066;54.274;18.578;2023-04-25T01:26:19;6.00;;;3.45;;
35993;SDS011;22066;54.274;18.578;2023-04-25T01:28:47;6.05;;;3.42;;
35993;SDS011;22066;54.274;18.578;2023-04-25T01:31:13;7.05;;;3.70;;
35993;SDS011;22066;54.274;18.578;2023-04-25T01:33:40;6.28;;;3.50;;
35993;SDS011;22066;54.274;18.578;2023-04-25T01:36:06;7.40;;;3.97;;
35993;SDS011;22066;54.274;18.578;2023-04-25T01:38:32;8.32;;;3.65;;
35993;SDS011;22066;54.274;18.578;2023-04-25T01:40:58;5.57;;;3.50;;
35993;SDS011;22066;54.274;18.578;2023-04-25T01:43:24;6.53;;;3.65;;
35993;SDS011;22066;54.274;18.578;2023-04-25T01:45:51;9.80;;;3.63;;
35993;SDS011;22066;54.274;18.578;2023-04-25T01:48:17;6.57;;;3.60;;
35993;SDS011;22066;54.274;18.578;2023-04-25T01:50:44;7.78;;;3.75;;
35993;SDS011;22066;54.274;18.578;2023-04-25T01:53:10;9.80;;;3.95;;
35993;SDS011;22066;54.274;18.578;2023-04-25T01:55:38;6.13;;;3.05;;
35993;SDS011;22066;54.274;18.578;2023-04-25T01:58:04;5.13;;;2.97;;
35993;SDS011;22066;54.274;18.578;2023-04-25T02:00:34;6.65;;;3.67;;
35993;SDS011;22066;54.274;18.578;2023-04-25T02:03:02;5.68;;;2.90;;
35993;SDS011;22066;54.274;18.578;2023-04-25T02:05:33;8.60;;;3.20;;
35993;SDS011;22066;54.274;18.578;2023-04-25T02:07:59;5.05;;;3.00;;
35993;SDS011;22066;54.274;18.578;2023-04-25T02:10:25;5.20;;;2.90;;
35993;SDS011;22066;54.274;18.578;2023-04-25T02:12:51;5.00;;;2.85;;
35993;SDS011;22066;54.274;18.578;2023-04-25T02:15:17;5.45;;;3.08;;
35993;SDS011;22066;54.274;18.578;2023-04-25T02:17:43;8.95;;;3.78;;
35993;SDS011;22066;54.274;18.578;2023-04-25T02:20:10;6.95;;;3.28;;
35993;SDS011;22066;54.274;18.578;2023-04-25T02:22:37;5.67;;;3.27;;
35993;SDS011;22066;54.274;18.578;2023-04-25T02:25:03;6.57;;;3.28;;
35993;SDS011;22066;54.274;18.578;2023-04-25T02:27:30;6.07;;;3.13;;
35993;SDS011;22066;54.274;18.578;2023-04-25T02:29:56;7.72;;;3.53;;
35993;SDS011;22066;54.274;18.578;2023-04-25T02:32:22;6.22;;;3.40;;
35993;SDS011;22066;54.274;18.578;2023-04-25T02:34:49;6.57;;;3.65;;
35993;SDS011;22066;54.274;18.578;2023-04-25T02:37:15;5.88;;;3.15;;
35993;SDS011;22066;54.274;18.578;2023-04-25T02:39:41;5.95;;;3.45;;
35993;SDS011;22066;54.274;18.578;2023-04-25T02:42:07;5.65;;;3.75;;
35993;SDS011;22066;54.274;18.578;2023-04-25T02:44:33;6.57;;;4.50;;
35993;SDS011;22066;54.274;18.578;2023-04-25T02:46:59;5.30;;;3.20;;
35993;SDS011;22066;54.274;18.578;2023-04-25T02:49:25;8.90;;;4.47;;
35993;SDS011;22066;54.274;18.578;2023-04-25T02:51:51;6.90;;;4.03;;
35993;SDS011;22066;54.274;18.578;2023-04-25T02:54:17;5.38;;;3.40;;
35993;SDS011;22066;54.274;18.578;2023-04-25T02:56:43;6.57;;;3.58;;
35993;SDS011;22066;54.274;18.578;2023-04-25T02:59:09;6.60;;;3.72;;
35993;SDS011;22066;54.274;18.578;2023-04-25T03:01:35;5.65;;;3.55;;
35993;SDS011;22066;54.274;18.578;2023-04-25T03:04:01;8.25;;;3.72;;
35993;SDS011;22066;54.274;18.578;2023-04-25T03:06:27;5.80;;;3.60;;
35993;SDS011;22066;54.274;18.578;2023-04-25T03:08:53;5.40;;;3.13;;
35993;SDS011;22066;54.274;18.578;2023-04-25T03:11:19;8.48;;;4.43;;
35993;SDS011;22066;54.274;18.578;2023-04-25T03:13:45;6.65;;;3.58;;
35993;SDS011;22066;54.274;18.578;2023-04-25T03:16:12;6.25;;;3.90;;
35993;SDS011;22066;54.274;18.578;2023-04-25T03:18:38;5.25;;;3.13;;
35993;SDS011;22066;54.274;18.578;2023-04-25T03:21:04;5.88;;;3.97;;
35993;SDS011;22066;54.274;18.578;2023-04-25T03:23:30;5.25;;;3.70;;
35993;SDS011;22066;54.274;18.578;2023-04-25T03:25:56;6.18;;;4.05;;
35993;SDS011;22066;54.274;18.578;2023-04-25T03:28:22;8.85;;;4.35;;
35993;SDS011;22066;54.274;18.578;2023-04-25T03:30:48;7.22;;;4.43;;
35993;SDS011;22066;54.274;18.578;2023-04-25T03:33:14;6.68;;;4.10;;
35993;SDS011;22066;54.274;18.578;2023-04-25T03:35:40;9.68;;;4.45;;
35993;SDS011;22066;54.274;18.578;2023-04-25T03:38:07;6.90;;;4.22;;
35993;SDS011;22066;54.274;18.578;2023-04-25T03:40:33;5.80;;;3.90;;
35993;SDS011;22066;54.274;18.578;2023-04-25T03:43:00;7.85;;;4.43;;
35993;SDS011;22066;54.274;18.578;2023-04-25T03:45:26;6.60;;;3.95;;
35993;SDS011;22066;54.274;18.578;2023-04-25T03:47:52;7.45;;;4.30;;
35993;SDS011;22066;54.274;18.578;2023-04-25T03:50:18;6.20;;;3.80;;
35993;SDS011;22066;54.274;18.578;2023-04-25T03:52:44;7.53;;;4.32;;
35993;SDS011;22066;54.274;18.578;2023-04-25T03:55:10;6.43;;;3.92;;
35993;SDS011;22066;54.274;18.578;2023-04-25T03:57:36;6.78;;;4.43;;
35993;SDS011;22066;54.274;18.578;2023-04-25T04:00:02;6.20;;;4.00;;
35993;SDS011;22066;54.274;18.578;2023-04-25T04:02:29;6.88;;;4.38;;
35993;SDS011;22066;54.274;18.578;2023-04-25T04:04:55;7.53;;;4.05;;
35993;SDS011;22066;54.274;18.578;2023-04-25T04:07:21;6.63;;;3.90;;
35993;SDS011;22066;54.274;18.578;2023-04-25T04:09:47;5.90;;;3.80;;
35993;SDS011;22066;54.274;18.578;2023-04-25T04:12:13;8.82;;;3.70;;
35993;SDS011;22066;54.274;18.578;2023-04-25T04:14:39;6.43;;;3.67;;
35993;SDS011;22066;54.274;18.578;2023-04-25T04:17:06;6.63;;;3.88;;
35993;SDS011;22066;54.274;18.578;2023-04-25T04:19:32;7.40;;;3.92;;
35993;SDS011;22066;54.274;18.578;2023-04-25T04:21:58;6.78;;;3.67;;
35993;SDS011;22066;54.274;18.578;2023-04-25T04:24:24;7.45;;;4.38;;
35993;SDS011;22066;54.274;18.578;2023-04-25T04:26:50;6.35;;;3.92;;
35993;SDS011;22066;54.274;18.578;2023-04-25T04:29:17;5.95;;;3.63;;
35993;SDS011;22066;54.274;18.578;2023-04-25T04:31:49;8.38;;;3.67;;
35993;SDS011;22066;54.274;18.578;2023-04-25T04:34:18;6.03;;;3.35;;
35993;SDS011;22066;54.274;18.578;2023-04-25T04:36:45;6.45;;;3.75;;
35993;SDS011;22066;54.274;18.578;2023-04-25T04:39:12;6.07;;;3.55;;
35993;SDS011;22066;54.274;18.578;2023-04-25T04:41:38;6.68;;;3.67;;
35993;SDS011;22066;54.274;18.578;2023-04-25T04:44:05;7.10;;;3.75;;
35993;SDS011;22066;54.274;18.578;2023-04-25T04:46:32;5.85;;;3.35;;
35993;SDS011;22066;54.274;18.578;2023-04-25T04:49:04;7.45;;;3.65;;
35993;SDS011;22066;54.274;18.578;2023-04-25T04:51:30;6.88;;;3.65;;
35993;SDS011;22066;54.274;18.578;2023-04-25T04:53:56;7.10;;;4.15;;
35993;SDS011;22066;54.274;18.578;2023-04-25T04:56:23;6.30;;;4.13;;
35993;SDS011;22066;54.274;18.578;2023-04-25T04:58:50;7.25;;;3.83;;
35993;SDS011;22066;54.274;18.578;2023-04-25T05:01:17;7.30;;;4.00;;
35993;SDS011;22066;54.274;18.578;2023-04-25T05:03:43;7.65;;;3.90;;
35993;SDS011;22066;54.274;18.578;2023-04-25T05:06:09;7.28;;;4.30;;
35993;SDS011;22066;54.274;18.578;2023-04-25T05:08:36;7.88;;;4.63;;
35993;SDS011;22066;54.274;18.578;2023-04-25T05:11:02;6.72;;;4.00;;
35993;SDS011;22066;54.274;18.578;2023-04-25T05:13:28;7.10;;;4.30;;
35993;SDS011;22066;54.274;18.578;2023-04-25T05:15:54;7.13;;;4.20;;
35993;SDS011;22066;54.274;18.578;2023-04-25T05:18:20;7.72;;;4.28;;
35993;SDS011;22066;54.274;18.578;2023-04-25T05:20:46;7.68;;;3.85;;
35993;SDS011;22066;54.274;18.578;2023-04-25T05:23:12;7.60;;;4.57;;
35993;SDS011;22066;54.274;18.578;2023-04-25T05:25:38;8.02;;;3.90;;
35993;SDS011;22066;54.274;18.578;2023-04-25T05:28:04;7.20;;;4.25;;
35993;SDS011;22066;54.274;18.578;2023-04-25T05:30:30;7.40;;;4.15;;
35993;SDS011;22066;54.274;18.578;2023-04-25T05:32:56;6.30;;;3.85;;
35993;SDS011;22066;54.274;18.578;2023-04-25T05:35:22;7.45;;;4.53;;
35993;SDS011;22066;54.274;18.578;2023-04-25T05:37:48;7.10;;;3.92;;
35993;SDS011;22066;54.274;18.578;2023-04-25T05:40:14;7.30;;;3.90;;
35993;SDS011;22066;54.274;18.578;2023-04-25T05:42:41;7.55;;;4.05;;
35993;SDS011;22066;54.274;18.578;2023-04-25T05:45:07;8.18;;;3.67;;
35993;SDS011;22066;54.274;18.578;2023-04-25T05:47:33;7.20;;;4.15;;
35993;SDS011;22066;54.274;18.578;2023-04-25T05:49:59;6.38;;;3.40;;
35993;SDS011;22066;54.274;18.578;2023-04-25T05:52:25;7.15;;;4.05;;
35993;SDS011;22066;54.274;18.578;2023-04-25T05:54:51;10.65;;;3.33;;
35993;SDS011;22066;54.274;18.578;2023-04-25T05:57:23;10.60;;;4.22;;
35993;SDS011;22066;54.274;18.578;2023-04-25T05:59:49;7.20;;;3.38;;
35993;SDS011;22066;54.274;18.578;2023-04-25T06:02:16;6.20;;;3.35;;
35993;SDS011;22066;54.274;18.578;2023-04-25T06:04:42;10.80;;;3.83;;
35993;SDS011;22066;54.274;18.578;2023-04-25T06:07:08;6.07;;;3.30;;
35993;SDS011;22066;54.274;18.578;2023-04-25T06:09:34;5.70;;;2.40;;
35993;SDS011;22066;54.274;18.578;2023-04-25T06:12:00;5.43;;;2.33;;
35993;SDS011;22066;54.274;18.578;2023-04-25T06:14:26;6.82;;;2.42;;
35993;SDS011;22066;54.274;18.578;2023-04-25T06:16:52;6.47;;;2.72;;
35993;SDS011;22066;54.274;18.578;2023-04-25T06:19:18;6.93;;;2.25;;
35993;SDS011;22066;54.274;18.578;2023-04-25T06:21:44;5.03;;;2.50;;
35993;SDS011;22066;54.274;18.578;2023-04-25T06:24:11;5.82;;;2.15;;
35993;SDS011;22066;54.274;18.578;2023-04-25T06:26:37;7.75;;;2.85;;
35993;SDS011;22066;54.274;18.578;2023-04-25T06:29:03;3.45;;;1.77;;
35993;SDS011;22066;54.274;18.578;2023-04-25T06:31:29;5.90;;;2.47;;
35993;SDS011;22066;54.274;18.578;2023-04-25T06:36:23;5.10;;;2.50;;
35993;SDS011;22066;54.274;18.578;2023-04-25T06:38:52;5.70;;;2.90;;
35993;SDS011;22066;54.274;18.578;2023-04-25T06:41:19;5.63;;;2.85;;
35993;SDS011;22066;54.274;18.578;2023-04-25T06:43:45;5.88;;;2.92;;
35993;SDS011;22066;54.274;18.578;2023-04-25T06:46:11;8.38;;;3.38;;
35993;SDS011;22066;54.274;18.578;2023-04-25T06:48:37;6.82;;;3.03;;
35993;SDS011;22066;54.274;18.578;2023-04-25T06:51:03;5.40;;;2.65;;
35993;SDS011;22066;54.274;18.578;2023-04-25T06:53:29;6.55;;;3.30;;
35993;SDS011;22066;54.274;18.578;2023-04-25T06:55:55;11.02;;;3.30;;
35993;SDS011;22066;54.274;18.578;2023-04-25T06:58:21;7.13;;;3.10;;
35993;SDS011;22066;54.274;18.578;2023-04-25T07:00:47;5.70;;;2.90;;
35993;SDS011;22066;54.274;18.578;2023-04-25T07:03:13;6.80;;;2.97;;
35993;SDS011;22066;54.274;18.578;2023-04-25T07:05:40;6.90;;;2.83;;
35993;SDS011;22066;54.274;18.578;2023-04-25T07:08:06;6.78;;;2.80;;
35993;SDS011;22066;54.274;18.578;2023-04-25T07:10:32;5.35;;;2.53;;
35993;SDS011;22066;54.274;18.578;2023-04-25T07:12:58;5.97;;;3.03;;
35993;SDS011;22066;54.274;18.578;2023-04-25T07:15:24;6.20;;;3.05;;
35993;SDS011;22066;54.274;18.578;2023-04-25T07:17:50;5.55;;;2.80;;
35993;SDS011;22066;54.274;18.578;2023-04-25T07:20:16;8.02;;;3.00;;
35993;SDS011;22066;54.274;18.578;2023-04-25T07:22:42;6.93;;;3.10;;
35993;SDS011;22066;54.274;18.578;2023-04-25T07:25:09;5.40;;;2.63;;
35993;SDS011;22066;54.274;18.578;2023-04-25T07:27:35;5.25;;;2.67;;
35993;SDS011;22066;54.274;18.578;2023-04-25T07:30:02;5.30;;;2.78;;
35993;SDS011;22066;54.274;18.578;2023-04-25T07:32:29;5.82;;;3.85;;
35993;SDS011;22066;54.274;18.578;2023-04-25T07:34:55;5.82;;;2.92;;
35993;SDS011;22066;54.274;18.578;2023-04-25T07:37:21;5.45;;;2.65;;
35993;SDS011;22066;54.274;18.578;2023-04-25T07:39:47;6.20;;;2.88;;
35993;SDS011;22066;54.274;18.578;2023-04-25T07:42:13;5.20;;;2.90;;
35993;SDS011;22066;54.274;18.578;2023-04-25T07:44:39;5.88;;;2.85;;
35993;SDS011;22066;54.274;18.578;2023-04-25T07:47:07;5.80;;;2.72;;
35993;SDS011;22066;54.274;18.578;2023-04-25T07:49:36;5.93;;;2.75;;
35993;SDS011;22066;54.274;18.578;2023-04-25T07:52:03;6.72;;;2.42;;
35993;SDS011;22066;54.274;18.578;2023-04-25T07:54:29;5.28;;;2.42;;
35993;SDS011;22066;54.274;18.578;2023-04-25T07:56:55;8.70;;;3.22;;
35993;SDS011;22066;54.274;18.578;2023-04-25T07:59:21;4.47;;;2.13;;
35993;SDS011;22066;54.274;18.578;2023-04-25T08:01:48;4.28;;;2.15;;
35993;SDS011;22066;54.274;18.578;2023-04-25T08:04:14;5.95;;;2.55;;
35993;SDS011;22066;54.274;18.578;2023-04-25T08:06:40;4.50;;;1.80;;
35993;SDS011;22066;54.274;18.578;2023-04-25T08:09:06;6.97;;;2.05;;
35993;SDS011;22066;54.274;18.578;2023-04-25T08:11:34;3.90;;;1.80;;
35993;SDS011;22066;54.274;18.578;2023-04-25T08:14:00;3.10;;;1.52;;
35993;SDS011;22066;54.274;18.578;2023-04-25T08:16:26;6.18;;;1.50;;
35993;SDS011;22066;54.274;18.578;2023-04-25T08:18:52;5.45;;;2.13;;
35993;SDS011;22066;54.274;18.578;2023-04-25T08:21:18;5.80;;;1.88;;
35993;SDS011;22066;54.274;18.578;2023-04-25T08:23:45;4.45;;;1.52;;
35993;SDS011;22066;54.274;18.578;2023-04-25T08:26:11;4.00;;;1.40;;
35993;SDS011;22066;54.274;18.578;2023-04-25T08:28:37;4.70;;;1.70;;
35993;SDS011;22066;54.274;18.578;2023-04-25T08:31:04;5.20;;;1.60;;
35993;SDS011;22066;54.274;18.578;2023-04-25T08:33:30;3.95;;;1.75;;
35993;SDS011;22066;54.274;18.578;2023-04-25T08:35:57;3.23;;;1.70;;
35993;SDS011;22066;54.274;18.578;2023-04-25T08:38:24;3.47;;;1.40;;
35993;SDS011;22066;54.274;18.578;2023-04-25T08:40:50;3.50;;;1.40;;
35993;SDS011;22066;54.274;18.578;2023-04-25T08:43:18;3.53;;;1.40;;
35993;SDS011;22066;54.274;18.578;2023-04-25T08:45:44;3.50;;;1.65;;
35993;SDS011;22066;54.274;18.578;2023-04-25T08:48:12;5.18;;;1.60;;
35993;SDS011;22066;54.274;18.578;2023-04-25T08:50:39;3.38;;;1.70;;
35993;SDS011;22066;54.274;18.578;2023-04-25T08:53:06;3.45;;;1.73;;
35993;SDS011;22066;54.274;18.578;2023-04-25T08:55:36;3.40;;;1.50;;
35993;SDS011;22066;54.274;18.578;2023-04-25T08:58:03;3.92;;;1.73;;
35993;SDS011;22066;54.274;18.578;2023-04-25T09:00:30;3.67;;;1.73;;
35993;SDS011;22066;54.274;18.578;2023-04-25T09:02:57;3.92;;;1.60;;
35993;SDS011;22066;54.274;18.578;2023-04-25T09:05:23;3.05;;;1.45;;
35993;SDS011;22066;54.274;18.578;2023-04-25T09:07:49;4.15;;;2.05;;
35993;SDS011;22066;54.274;18.578;2023-04-25T09:10:15;3.72;;;1.67;;
35993;SDS011;22066;54.274;18.578;2023-04-25T09:12:41;3.20;;;1.40;;
35993;SDS011;22066;54.274;18.578;2023-04-25T09:15:08;3.65;;;1.35;;
35993;SDS011;22066;54.274;18.578;2023-04-25T09:17:35;3.22;;;1.63;;
35993;SDS011;22066;54.274;18.578;2023-04-25T09:20:14;3.25;;;1.40;;
35993;SDS011;22066;54.274;18.578;2023-04-25T09:22:40;3.90;;;1.45;;
35993;SDS011;22066;54.274;18.578;2023-04-25T09:25:08;2.58;;;1.50;;
35993;SDS011;22066;54.274;18.578;2023-04-25T09:27:35;4.88;;;1.60;;
35993;SDS011;22066;54.274;18.578;2023-04-25T09:30:01;3.17;;;1.17;;
35993;SDS011;22066;54.274;18.578;2023-04-25T09:32:28;2.40;;;1.27;;
35993;SDS011;22066;54.274;18.578;2023-04-25T09:34:55;5.00;;;1.70;;
35993;SDS011;22066;54.274;18.578;2023-04-25T09:37:22;3.78;;;1.40;;
35993;SDS011;22066;54.274;18.578;2023-04-25T09:39:49;3.97;;;1.40;;
35993;SDS011;22066;54.274;18.578;2023-04-25T09:42:16;3.20;;;1.20;;
35993;SDS011;22066;54.274;18.578;2023-04-25T09:44:43;2.55;;;1.15;;
35993;SDS011;22066;54.274;18.578;2023-04-25T09:47:10;2.55;;;1.13;;
35993;SDS011;22066;54.274;18.578;2023-04-25T09:49:38;6.20;;;1.30;;
35993;SDS011;22066;54.274;18.578;2023-04-25T09:52:05;3.58;;;1.60;;
35993;SDS011;22066;54.274;18.578;2023-04-25T09:54:32;2.47;;;1.27;;
35993;SDS011;22066;54.274;18.578;2023-04-25T09:56:58;1.98;;;1.08;;
35993;SDS011;22066;54.274;18.578;2023-04-25T09:59:27;3.05;;;1.45;;
35993;SDS011;22066;54.274;18.578;2023-04-25T10:01:54;2.70;;;1.33;;
35993;SDS011;22066;54.274;18.578;2023-04-25T10:04:24;2.10;;;1.10;;
35993;SDS011;22066;54.274;18.578;2023-04-25T10:06:51;2.13;;;1.33;;
35993;SDS011;22066;54.274;18.578;2023-04-25T10:09:21;2.75;;;1.35;;
35993;SDS011;22066;54.274;18.578;2023-04-25T10:11:51;2.28;;;1.38;;
35993;SDS011;22066;54.274;18.578;2023-04-25T10:14:18;5.10;;;1.83;;
35993;SDS011;22066;54.274;18.578;2023-04-25T10:16:44;3.05;;;1.52;;
35993;SDS011;22066;54.274;18.578;2023-04-25T10:19:11;3.33;;;1.60;;
35993;SDS011;22066;54.274;18.578;2023-04-25T10:21:43;4.72;;;1.63;;
35993;SDS011;22066;54.274;18.578;2023-04-25T10:24:10;3.78;;;1.80;;
35993;SDS011;22066;54.274;18.578;2023-04-25T10:26:37;2.13;;;1.30;;
35993;SDS011;22066;54.274;18.578;2023-04-25T10:29:03;6.80;;;1.50;;
35993;SDS011;22066;54.274;18.578;2023-04-25T10:31:29;3.65;;;1.70;;
35993;SDS011;22066;54.274;18.578;2023-04-25T10:33:56;4.57;;;2.22;;
35993;SDS011;22066;54.274;18.578;2023-04-25T10:36:23;4.05;;;1.60;;
35993;SDS011;22066;54.274;18.578;2023-04-25T10:38:52;3.83;;;1.88;;
35993;SDS011;22066;54.274;18.578;2023-04-25T10:41:19;6.63;;;1.88;;
35993;SDS011;22066;54.274;18.578;2023-04-25T10:43:46;2.50;;;1.30;;
35993;SDS011;22066;54.274;18.578;2023-04-25T10:46:14;3.35;;;1.42;;
35993;SDS011;22066;54.274;18.578;2023-04-25T10:48:45;2.88;;;1.30;;
35993;SDS011;22066;54.274;18.578;2023-04-25T10:51:22;2.08;;;1.00;;
35993;SDS011;22066;54.274;18.578;2023-04-25T10:56:27;4.40;;;1.73;;
35993;SDS011;22066;54.274;18.578;2023-04-25T10:59:04;2.08;;;1.08;;
35993;SDS011;22066;54.274;18.578;2023-04-25T11:01:41;2.65;;;1.20;;
35993;SDS011;22066;54.274;18.578;2023-04-25T11:09:25;3.13;;;1.58;;
35993;SDS011;22066;54.274;18.578;2023-04-25T11:11:53;3.45;;;1.58;;
35993;SDS011;22066;54.274;18.578;2023-04-25T11:14:20;3.77;;;1.90;;
35993;SDS011;22066;54.274;18.578;2023-04-25T11:16:46;6.38;;;2.08;;
35993;SDS011;22066;54.274;18.578;2023-04-25T11:19:12;8.98;;;2.63;;
35993;SDS011;22066;54.274;18.578;2023-04-25T11:21:38;3.67;;;1.77;;
35993;SDS011;22066;54.274;18.578;2023-04-25T11:24:05;2.75;;;1.60;;
35993;SDS011;22066;54.274;18.578;2023-04-25T11:26:31;3.72;;;1.75;;
35993;SDS011;22066;54.274;18.578;2023-04-25T11:28:57;4.53;;;2.05;;
35993;SDS011;22066;54.274;18.578;2023-04-25T11:31:26;4.65;;;1.60;;
35993;SDS011;22066;54.274;18.578;2023-04-25T11:33:53;6.20;;;2.10;;
35993;SDS011;22066;54.274;18.578;2023-04-25T11:36:20;3.53;;;1.80;;
35993;SDS011;22066;54.274;18.578;2023-04-25T11:38:46;3.55;;;1.83;;
35993;SDS011;22066;54.274;18.578;2023-04-25T11:41:12;4.65;;;2.13;;
35993;SDS011;22066;54.274;18.578;2023-04-25T11:43:38;5.28;;;2.63;;
35993;SDS011;22066;54.274;18.578;2023-04-25T11:46:07;3.58;;;1.63;;
35993;SDS011;22066;54.274;18.578;2023-04-25T11:48:36;3.83;;;1.92;;
35993;SDS011;22066;54.274;18.578;2023-04-25T11:51:03;4.63;;;1.90;;
35993;SDS011;22066;54.274;18.578;2023-04-25T11:53:29;4.35;;;1.70;;
35993;SDS011;22066;54.274;18.578;2023-04-25T11:55:55;3.17;;;1.83;;
35993;SDS011;22066;54.274;18.578;2023-04-25T11:58:22;4.50;;;1.58;;
35993;SDS011;22066;54.274;18.578;2023-04-25T12:00:48;3.45;;;1.77;;
35993;SDS011;22066;54.274;18.578;2023-04-25T12:03:14;3.60;;;1.98;;
35993;SDS011;22066;54.274;18.578;2023-04-25T12:05:40;3.55;;;1.80;;
35993;SDS011;22066;54.274;18.578;2023-04-25T12:08:10;3.60;;;1.70;;
35993;SDS011;22066;54.274;18.578;2023-04-25T12:10:37;5.40;;;2.05;;
35993;SDS011;22066;54.274;18.578;2023-04-25T12:13:23;6.07;;;2.53;;
35993;SDS011;22066;54.274;18.578;2023-04-25T12:15:50;5.18;;;2.15;;
35993;SDS011;22066;54.274;18.578;2023-04-25T12:18:19;5.90;;;2.28;;
35993;SDS011;22066;54.274;18.578;2023-04-25T12:20:46;8.07;;;2.42;;
35993;SDS011;22066;54.274;18.578;2023-04-25T12:23:12;6.28;;;2.00;;
35993;SDS011;22066;54.274;18.578;2023-04-25T12:25:39;6.40;;;2.25;;
35993;SDS011;22066;54.274;18.578;2023-04-25T12:28:19;6.28;;;1.80;;
35993;SDS011;22066;54.274;18.578;2023-04-25T12:30:58;5.55;;;1.52;;
35993;SDS011;22066;54.274;18.578;2023-04-25T12:33:28;3.15;;;1.60;;
35993;SDS011;22066;54.274;18.578;2023-04-25T12:35:54;2.97;;;1.70;;
35993;SDS011;22066;54.274;18.578;2023-04-25T12:38:21;4.88;;;2.10;;
35993;SDS011;22066;54.274;18.578;2023-04-25T12:40:47;5.10;;;1.85;;
35993;SDS011;22066;54.274;18.578;2023-04-25T12:43:14;3.67;;;1.50;;
35993;SDS011;22066;54.274;18.578;2023-04-25T12:45:40;8.45;;;2.95;;
35993;SDS011;22066;54.274;18.578;2023-04-25T12:48:06;5.95;;;2.33;;
35993;SDS011;22066;54.274;18.578;2023-04-25T12:50:32;4.80;;;2.00;;
35993;SDS011;22066;54.274;18.578;2023-04-25T12:52:58;7.05;;;2.22;;
35993;SDS011;22066;54.274;18.578;2023-04-25T12:55:24;4.88;;;2.03;;
35993;SDS011;22066;54.274;18.578;2023-04-25T12:57:51;7.53;;;2.80;;
35993;SDS011;22066;54.274;18.578;2023-04-25T13:00:17;6.93;;;2.28;;
35993;SDS011;22066;54.274;18.578;2023-04-25T13:02:45;6.68;;;2.30;;
35993;SDS011;22066;54.274;18.578;2023-04-25T13:05:14;4.68;;;2.38;;
35993;SDS011;22066;54.274;18.578;2023-04-25T13:07:40;6.18;;;2.83;;
35993;SDS011;22066;54.274;18.578;2023-04-25T13:10:06;5.15;;;2.40;;
35993;SDS011;22066;54.274;18.578;2023-04-25T13:12:32;6.82;;;3.92;;
35993;SDS011;22066;54.274;18.578;2023-04-25T13:14:58;7.30;;;2.75;;
35993;SDS011;22066;54.274;18.578;2023-04-25T13:17:24;5.88;;;2.63;;
35993;SDS011;22066;54.274;18.578;2023-04-25T13:19:50;7.18;;;2.72;;
35993;SDS011;22066;54.274;18.578;2023-04-25T13:22:16;7.03;;;2.63;;
35993;SDS011;22066;54.274;18.578;2023-04-25T13:24:45;5.97;;;2.53;;
35993;SDS011;22066;54.274;18.578;2023-04-25T13:27:11;4.60;;;1.95;;
35993;SDS011;22066;54.274;18.578;2023-04-25T13:29:37;7.93;;;2.50;;
35993;SDS011;22066;54.274;18.578;2023-04-25T13:32:05;6.43;;;2.60;;
35993;SDS011;22066;54.274;18.578;2023-04-25T13:34:31;6.57;;;2.25;;
35993;SDS011;22066;54.274;18.578;2023-04-25T13:36:58;7.93;;;2.80;;
35993;SDS011;22066;54.274;18.578;2023-04-25T13:39:24;7.10;;;2.50;;
35993;SDS011;22066;54.274;18.578;2023-04-25T13:41:50;10.02;;;3.28;;
35993;SDS011;22066;54.274;18.578;2023-04-25T13:44:16;6.07;;;2.65;;
35993;SDS011;22066;54.274;18.578;2023-04-25T13:46:42;7.50;;;2.65;;
35993;SDS011;22066;54.274;18.578;2023-04-25T13:49:08;6.30;;;2.17;;
35993;SDS011;22066;54.274;18.578;2023-04-25T13:51:34;5.85;;;2.60;;
35993;SDS011;22066;54.274;18.578;2023-04-25T13:54:00;6.57;;;2.58;;
35993;SDS011;22066;54.274;18.578;2023-04-25T13:56:26;7.75;;;2.53;;
35993;SDS011;22066;54.274;18.578;2023-04-25T13:58:52;6.07;;;2.40;;
35993;SDS011;22066;54.274;18.578;2023-04-25T14:01:18;7.07;;;2.47;;
35993;SDS011;22066;54.274;18.578;2023-04-25T14:03:46;4.90;;;2.33;;
35993;SDS011;22066;54.274;18.578;2023-04-25T14:06:12;7.00;;;2.78;;
35993;SDS011;22066;54.274;18.578;2023-04-25T14:08:38;7.00;;;3.15;;
35993;SDS011;22066;54.274;18.578;2023-04-25T14:11:05;7.80;;;3.08;;
35993;SDS011;22066;54.274;18.578;2023-04-25T14:13:31;6.35;;;2.75;;
35993;SDS011;22066;54.274;18.578;2023-04-25T14:15:57;11.52;;;3.42;;
35993;SDS011;22066;54.274;18.578;2023-04-25T14:18:23;5.07;;;2.65;;
35993;SDS011;22066;54.274;18.578;2023-04-25T14:20:49;5.15;;;2.65;;
35993;SDS011;22066;54.274;18.578;2023-04-25T14:23:16;6.63;;;2.33;;
35993;SDS011;22066;54.274;18.578;2023-04-25T14:25:42;7.57;;;2.95;;
35993;SDS011;22066;54.274;18.578;2023-04-25T14:28:09;8.65;;;2.80;;
35993;SDS011;22066;54.274;18.578;2023-04-25T14:30:35;6.95;;;3.15;;
35993;SDS011;22066;54.274;18.578;2023-04-25T14:33:01;8.77;;;2.75;;
35993;SDS011;22066;54.274;18.578;2023-04-25T14:35:27;8.05;;;3.00;;
35993;SDS011;22066;54.274;18.578;2023-04-25T14:37:53;7.63;;;3.70;;
35993;SDS011;22066;54.274;18.578;2023-04-25T14:40:20;7.10;;;2.70;;